Time;durP1;ratioP1;P1;durP2;ratioP2;P2;SDS_P1;SDS_P2;PMS_P1;PMS_P2;Temp;Humidity;BMP_temperature;BMP_pressure;BME280_temperature;BME280_humidity;BME280_pressure;Samples;Min_cycle;Max_cycle;Signal;HPM_P1;HPM_P2
2023/02/09 00:01:39;;;;;;;;;;;;;;;;;;5008783;28;19921;-85
2023/02/09 00:04:11;;;;;;;;;;;;;;;;;;5010921;28;19922;-84
2023/02/09 00:06:39;;;;;;;;;;;;;;;;;;5027764;28;20405;-85
2023/02/09 00:09:06;;;;;;;;;;;;;;;;;;5010420;28;20301;-84
2023/02/09 00:14:19;;;;;;;;;;;;;;;;;;5012537;28;20367;-85
2023/02/09 00:16:47;;;;;;;;;;;;;;;;;;5013140;28;19921;-84
2023/02/09 00:19:14;;;;;;;;;;;;;;;;;;5020679;28;19921;-84
2023/02/09 00:21:42;;;;;;;;;;;;;;;;;;5027989;28;19921;-83
2023/02/09 00:24:10;;;;;;;;;;;;;;;;;;5011886;28;19925;-85
2023/02/09 00:26:42;;;;;;;;;;;;;;;;;;5009901;28;19921;-85
2023/02/09 00:29:15;;;;;;;;;;;;;;;;;;5009020;28;19929;-85
2023/02/09 00:31:42;;;;;;;;;;;;;;;;;;5030313;28;20357;-84
2023/02/09 00:34:10;;;;;;;;;;;;;;;;;;5018128;28;19932;-85
2023/02/09 00:36:37;;;;;;;;;;;;;;;;;;5028795;28;19921;-84
2023/02/09 00:39:05;;;;;;;;;;;;;;;;;;5023567;28;19921;-85
2023/02/09 00:44:23;;;;;;;;;;;;;;;;;;5024007;28;20034;-84
2023/02/09 00:46:51;;;;;;;;;;;;;;;;;;5020498;28;19922;-84
2023/02/09 00:49:23;;;;;;;;;;;;;;;;;;5012788;28;19922;-85
2023/02/09 00:51:51;;;;;;;;;;;;;;;;;;5019886;28;19929;-85
2023/02/09 00:54:18;;;;;;;;;;;;;;;;;;5028171;28;19944;-85
2023/02/09 00:56:46;;;;;;;;;;;;;;;;;;5023129;28;19928;-85
2023/02/09 00:59:13;;;;;;;;;;;;;;;;;;5013413;28;19922;-85
2023/02/09 01:01:41;;;;;;;;;;;;;;;;;;5018001;28;19928;-85
2023/02/09 01:04:08;;;;;;;;;;;;;;;;;;5012539;28;19929;-85
2023/02/09 01:06:36;;;;;;;;;;;;;;;;;;5034657;28;19928;-85
2023/02/09 01:09:03;;;;;;;;;;;;;;;;;;5030143;28;19921;-85
2023/02/09 01:11:31;;;;;;;;;;;;;;;;;;5016504;28;19928;-85
2023/02/09 01:13:58;;;;;;;;;;;;;;;;;;5005000;28;19922;-85
2023/02/09 01:16:27;;;;;;;;;;;;;;;;;;5007262;28;19952;-85
2023/02/09 01:18:54;;;;;;;;;;;;;;;;;;5017176;28;19925;-85
2023/02/09 01:21:22;;;;;;;;;;;;;;;;;;5007856;28;19928;-85
2023/02/09 01:23:52;;;;;;;;;;;;;;;;;;5019829;28;19921;-85
2023/02/09 01:26:19;;;;;;;;;;;;;;;;;;5032377;28;19929;-85
2023/02/09 01:28:52;;;;;;;;;;;;;;;;;;5023690;28;19921;-84
2023/02/09 01:31:19;;;;;;;;;;;;;;;;;;5025519;28;19929;-86
2023/02/09 01:33:49;;;;;;;;;;;;;;;;;;5027780;28;20401;-85
2023/02/09 01:36:17;;;;;;;;;;;;;;;;;;5016529;28;19929;-85
2023/02/09 01:38:49;;;;;;;;;;;;;;;;;;5027869;28;19921;-85
2023/02/09 01:41:17;;;;;;;;;;;;;;;;;;5027030;28;19928;-84
2023/02/09 01:43:44;;;;;;;;;;;;;;;;;;5031466;28;19925;-83
2023/02/09 01:46:12;;;;;;;;;;;;;;;;;;5019311;28;20393;-83
2023/02/09 01:48:39;;;;;;;;;;;;;;;;;;5045410;28;19921;-84
2023/02/09 01:51:07;;;;;;;;;;;;;;;;;;5021682;28;19921;-84
2023/02/09 01:53:35;;;;;;;;;;;;;;;;;;5029891;28;19925;-84
2023/02/09 01:56:02;;;;;;;;;;;;;;;;;;5031364;28;20290;-84
2023/02/09 01:58:30;;;;;;;;;;;;;;;;;;5018936;28;19922;-84
2023/02/09 02:00:57;;;;;;;;;;;;;;;;;;5025982;28;19932;-85
2023/02/09 02:03:25;;;;;;;;;;;;;;;;;;5019101;28;19924;-84
2023/02/09 02:05:57;;;;;;;;;;;;;;;;;;5020773;28;19922;-84
2023/02/09 02:08:30;;;;;;;;;;;;;;;;;;5030324;28;19921;-84
2023/02/09 02:10:57;;;;;;;;;;;;;;;;;;5022981;28;19929;-84
2023/02/09 02:13:30;;;;;;;;;;;;;;;;;;5020016;28;19929;-84
2023/02/09 02:16:02;;;;;;;;;;;;;;;;;;5024549;28;19921;-84
2023/02/09 02:18:30;;;;;;;;;;;;;;;;;;5022925;28;19928;-84
2023/02/09 02:20:57;;;;;;;;;;;;;;;;;;5024547;28;19928;-84
2023/02/09 02:23:25;;;;;;;;;;;;;;;;;;5004091;28;19925;-84
2023/02/09 02:25:53;;;;;;;;;;;;;;;;;;5009651;28;19920;-84
2023/02/09 02:28:20;;;;;;;;;;;;;;;;;;5022627;28;19922;-85
2023/02/09 02:30:48;;;;;;;;;;;;;;;;;;5028302;28;19921;-84
2023/02/09 02:33:20;;;;;;;;;;;;;;;;;;5035845;28;19921;-84
2023/02/09 02:35:53;;;;;;;;;;;;;;;;;;5019040;28;19921;-84
2023/02/09 02:38:20;;;;;;;;;;;;;;;;;;5025317;28;19928;-84
2023/02/09 02:40:48;;;;;;;;;;;;;;;;;;5021646;28;19921;-85
2023/02/09 02:43:15;;;;;;;;;;;;;;;;;;5020082;28;20286;-84
2023/02/09 02:45:43;;;;;;;;;;;;;;;;;;5022343;28;19921;-85
2023/02/09 02:48:15;;;;;;;;;;;;;;;;;;5034613;28;19932;-85
2023/02/09 02:50:48;;;;;;;;;;;;;;;;;;5018232;28;19921;-85
2023/02/09 02:53:20;;;;;;;;;;;;;;;;;;5019083;28;19922;-84
2023/02/09 02:55:48;;;;;;;;;;;;;;;;;;5045067;28;20301;-85
2023/02/09 02:58:15;;;;;;;;;;;;;;;;;;5013643;28;19940;-85
2023/02/09 03:00:43;;;;;;;;;;;;;;;;;;5029037;28;19941;-84
2023/02/09 03:03:10;;;;;;;;;;;;;;;;;;5020998;28;19921;-84
2023/02/09 03:05:43;;;;;;;;;;;;;;;;;;5019872;28;19922;-85
2023/02/09 03:08:10;;;;;;;;;;;;;;;;;;5003946;28;19929;-85
2023/02/09 03:10:43;;;;;;;;;;;;;;;;;;5032890;28;19921;-85
2023/02/09 03:13:10;;;;;;;;;;;;;;;;;;5024387;28;19928;-85
2023/02/09 03:15:38;;;;;;;;;;;;;;;;;;5015447;28;19925;-85
2023/02/09 03:18:05;;;;;;;;;;;;;;;;;;5017571;28;19932;-85
2023/02/09 03:20:33;;;;;;;;;;;;;;;;;;5019939;28;19929;-85
2023/02/09 03:23:01;;;;;;;;;;;;;;;;;;5025601;28;20301;-84
2023/02/09 03:25:28;;;;;;;;;;;;;;;;;;5022034;28;19921;-85
2023/02/09 03:27:56;;;;;;;;;;;;;;;;;;5018930;28;19925;-85
2023/02/09 03:30:23;;;;;;;;;;;;;;;;;;5022238;28;19922;-85
2023/02/09 03:32:54;;;;;;;;;;;;;;;;;;5025253;28;19921;-85
2023/02/09 03:35:27;;;;;;;;;;;;;;;;;;5017320;28;19928;-85
2023/02/09 03:38:01;;;;;;;;;;;;;;;;;;5016661;28;19921;-84
2023/02/09 03:40:28;;;;;;;;;;;;;;;;;;5016585;28;19929;-85
2023/02/09 03:42:56;;;;;;;;;;;;;;;;;;5013828;28;19932;-85
2023/02/09 03:45:28;;;;;;;;;;;;;;;;;;5020492;28;19928;-85
2023/02/09 03:47:56;;;;;;;;;;;;;;;;;;5013328;28;20374;-85
2023/02/09 03:50:23;;;;;;;;;;;;;;;;;;5031066;28;19921;-85
2023/02/09 03:52:51;;;;;;;;;;;;;;;;;;5022796;28;19921;-85
2023/02/09 03:55:18;;;;;;;;;;;;;;;;;;5010229;28;19929;-85
2023/02/09 03:57:46;;;;;;;;;;;;;;;;;;5019716;28;19931;-85
2023/02/09 04:00:18;;;;;;;;;;;;;;;;;;5014730;28;20373;-85
2023/02/09 04:02:51;;;;;;;;;;;;;;;;;;5023646;28;19932;-85
2023/02/09 04:05:18;;;;;;;;;;;;;;;;;;5016243;28;20294;-85
2023/02/09 04:07:46;;;;;;;;;;;;;;;;;;5028390;28;19925;-85
2023/02/09 04:10:18;;;;;;;;;;;;;;;;;;5026043;28;20298;-85
2023/02/09 04:12:47;;;;;;;;;;;;;;;;;;5016288;28;19932;-85
2023/02/09 04:15:14;;;;;;;;;;;;;;;;;;5024597;28;20627;-85
2023/02/09 04:17:42;;;;;;;;;;;;;;;;;;5023699;28;19921;-85
2023/02/09 04:20:09;;;;;;;;;;;;;;;;;;5025110;28;19921;-85
2023/02/09 04:22:42;;;;;;;;;;;;;;;;;;5023040;28;20321;-85
2023/02/09 04:25:14;;;;;;;;;;;;;;;;;;5023082;28;19929;-85
2023/02/09 04:27:42;;;;;;;;;;;;;;;;;;5022859;28;20313;-85
2023/02/09 04:30:14;;;;;;;;;;;;;;;;;;5028620;28;20344;-85
2023/02/09 04:32:42;;;;;;;;;;;;;;;;;;5022834;28;19921;-85
2023/02/09 04:35:09;;;;;;;;;;;;;;;;;;5024750;28;20404;-85
2023/02/09 04:37:37;;;;;;;;;;;;;;;;;;5012148;28;19925;-85
2023/02/09 04:40:09;;;;;;;;;;;;;;;;;;5029734;28;19936;-85
2023/02/09 04:42:37;;;;;;;;;;;;;;;;;;5017941;28;19929;-85
2023/02/09 04:45:04;;;;;;;;;;;;;;;;;;5024485;28;19928;-85
2023/02/09 04:47:37;;;;;;;;;;;;;;;;;;5017590;28;19921;-85
2023/02/09 04:50:09;;;;;;;;;;;;;;;;;;5015974;28;19921;-86
2023/02/09 04:52:37;;;;;;;;;;;;;;;;;;5016580;28;19921;-85
2023/02/09 04:55:04;;;;;;;;;;;;;;;;;;5028521;28;20440;-85
2023/02/09 05:00:22;;;;;;;;;;;;;;;;;;5022773;28;19924;-85
2023/02/09 05:02:54;;;;;;;;;;;;;;;;;;5044821;28;19921;-85
2023/02/09 05:05:27;;;;;;;;;;;;;;;;;;5018953;28;19925;-85
2023/02/09 05:08:00;;;;;;;;;;;;;;;;;;5026045;28;19936;-86
2023/02/09 05:10:27;;;;;;;;;;;;;;;;;;5020576;28;20448;-85
2023/02/09 05:12:55;;;;;;;;;;;;;;;;;;5036634;28;19921;-85
2023/02/09 05:15:22;;;;;;;;;;;;;;;;;;5014723;28;20397;-86
2023/02/09 05:17:50;;;;;;;;;;;;;;;;;;5037588;28;19928;-86
2023/02/09 05:20:17;;;;;;;;;;;;;;;;;;5016375;28;19928;-86
2023/02/09 05:22:45;;;;;;;;;;;;;;;;;;5027274;28;19921;-85
2023/02/09 05:25:12;;;;;;;;;;;;;;;;;;5029187;28;19922;-86
2023/02/09 05:27:40;;;;;;;;;;;;;;;;;;5019516;28;19921;-85
2023/02/09 05:30:07;;;;;;;;;;;;;;;;;;5009468;28;19928;-86
2023/02/09 05:32:40;;;;;;;;;;;;;;;;;;5040083;28;20382;-85
2023/02/09 05:35:07;;;;;;;;;;;;;;;;;;5027344;28;19921;-86
2023/02/09 05:37:40;;;;;;;;;;;;;;;;;;5025132;28;20043;-85
2023/02/09 05:40:08;;;;;;;;;;;;;;;;;;5026344;28;19921;-86
2023/02/09 05:42:40;;;;;;;;;;;;;;;;;;5033879;28;19921;-86
2023/02/09 05:45:08;;;;;;;;;;;;;;;;;;5018927;28;19921;-86
2023/02/09 05:47:35;;;;;;;;;;;;;;;;;;5023829;28;19921;-86
2023/02/09 05:50:03;;;;;;;;;;;;;;;;;;5017286;28;19943;-85
2023/02/09 05:52:30;;;;;;;;;;;;;;;;;;5021492;28;19921;-86
2023/02/09 05:54:58;;;;;;;;;;;;;;;;;;5025621;28;19928;-86
2023/02/09 05:57:25;;;;;;;;;;;;;;;;;;5017075;28;19928;-85
2023/02/09 05:59:53;;;;;;;;;;;;;;;;;;5019984;28;19921;-85
2023/02/09 06:02:20;;;;;;;;;;;;;;;;;;5003103;28;19925;-85
2023/02/09 06:04:48;;;;;;;;;;;;;;;;;;5004544;28;19944;-86
2023/02/09 06:07:20;;;;;;;;;;;;;;;;;;5018589;28;20293;-85
2023/02/09 06:09:48;;;;;;;;;;;;;;;;;;5013836;28;19922;-85
2023/02/09 06:12:15;;;;;;;;;;;;;;;;;;5012381;28;20378;-86
2023/02/09 06:14:48;;;;;;;;;;;;;;;;;;5038481;28;20400;-86
2023/02/09 06:17:15;;;;;;;;;;;;;;;;;;5011174;28;19921;-86
2023/02/09 06:19:43;;;;;;;;;;;;;;;;;;5023154;28;19928;-86
2023/02/09 06:22:16;;;;;;;;;;;;;;;;;;5011036;28;19921;-86
2023/02/09 06:24:43;;;;;;;;;;;;;;;;;;5024565;28;19929;-86
2023/02/09 06:27:16;;;;;;;;;;;;;;;;;;5013364;28;20294;-86
2023/02/09 06:29:48;;;;;;;;;;;;;;;;;;5020520;28;20573;-86
2023/02/09 06:32:16;;;;;;;;;;;;;;;;;;5018599;28;19944;-86
2023/02/09 06:34:43;;;;;;;;;;;;;;;;;;5032407;28;19921;-86
2023/02/09 06:37:11;;;;;;;;;;;;;;;;;;5013100;28;19921;-86
2023/02/09 06:39:38;;;;;;;;;;;;;;;;;;5039997;28;19921;-87
2023/02/09 06:42:06;;;;;;;;;;;;;;;;;;5013213;28;19928;-88
2023/02/09 06:44:33;;;;;;;;;;;;;;;;;;5003683;28;19922;-87
2023/02/09 06:47:01;;;;;;;;;;;;;;;;;;5012054;28;19921;-88
2023/02/09 06:49:28;;;;;;;;;;;;;;;;;;5021152;28;19928;-87
2023/02/09 06:52:01;;;;;;;;;;;;;;;;;;5016495;28;19929;-87
2023/02/09 06:54:29;;;;;;;;;;;;;;;;;;5013389;28;19921;-88
2023/02/09 06:57:01;;;;;;;;;;;;;;;;;;5028384;28;19944;-87
2023/02/09 06:59:29;;;;;;;;;;;;;;;;;;5018397;28;19922;-87
2023/02/09 07:01:56;;;;;;;;;;;;;;;;;;5029444;28;20394;-87
2023/02/09 07:04:29;;;;;;;;;;;;;;;;;;5017753;28;20281;-87
2023/02/09 07:06:56;;;;;;;;;;;;;;;;;;5029232;28;19954;-87
2023/02/09 07:09:24;;;;;;;;;;;;;;;;;;5015926;28;19921;-88
2023/02/09 07:11:51;;;;;;;;;;;;;;;;;;5015268;28;19932;-87
2023/02/09 07:14:19;;;;;;;;;;;;;;;;;;5018406;28;20404;-86
2023/02/09 07:16:51;;;;;;;;;;;;;;;;;;5019510;28;19929;-87
2023/02/09 07:19:19;;;;;;;;;;;;;;;;;;5015344;28;20385;-87
2023/02/09 07:21:46;;;;;;;;;;;;;;;;;;5018466;28;19921;-87
2023/02/09 07:24:19;;;;;;;;;;;;;;;;;;5019572;28;19921;-87
2023/02/09 07:26:46;;;;;;;;;;;;;;;;;;5018207;28;19929;-87
2023/02/09 07:29:14;;;;;;;;;;;;;;;;;;5012544;28;20367;-87
2023/02/09 07:31:41;;;;;;;;;;;;;;;;;;5005606;28;19922;-87
2023/02/09 07:34:09;;;;;;;;;;;;;;;;;;5008285;28;20362;-87
2023/02/09 07:36:36;;;;;;;;;;;;;;;;;;5013428;28;19922;-87
2023/02/09 07:39:04;;;;;;;;;;;;;;;;;;5007643;28;19921;-87
2023/02/09 07:41:36;;;;;;;;;;;;;;;;;;5021535;28;19925;-87
2023/02/09 07:44:04;;;;;;;;;;;;;;;;;;5007570;28;20374;-87
2023/02/09 07:46:36;;;;;;;;;;;;;;;;;;5015786;28;20390;-87
2023/02/09 07:49:09;;;;;;;;;;;;;;;;;;5016184;28;20283;-88
2023/02/09 07:51:36;;;;;;;;;;;;;;;;;;5019419;28;19921;-88
2023/02/09 07:54:04;;;;;;;;;;;;;;;;;;5008504;28;19929;-87
2023/02/09 07:56:37;;;;;;;;;;;;;;;;;;5021048;28;19929;-88
2023/02/09 07:59:05;;;;;;;;;;;;;;;;;;5026843;28;20618;-87
2023/02/09 08:01:32;;;;;;;;;;;;;;;;;;5004184;28;20633;-86
2023/02/09 08:04:00;;;;;;;;;;;;;;;;;;5010714;28;19921;-86
2023/02/09 08:06:27;;;;;;;;;;;;;;;;;;5007406;28;19929;-87
2023/02/09 08:08:55;;;;;;;;;;;;;;;;;;5001190;28;20294;-88
2023/02/09 08:11:22;;;;;;;;;;;;;;;;;;5003228;28;19921;-86
2023/02/09 08:13:50;;;;;;;;;;;;;;;;;;5017452;28;19929;-86
2023/02/09 08:16:22;;;;;;;;;;;;;;;;;;5010393;28;19921;-86
2023/02/09 08:18:50;;;;;;;;;;;;;;;;;;5021776;28;19929;-85
2023/02/09 08:21:17;;;;;;;;;;;;;;;;;;5017998;28;19921;-86
2023/02/09 08:23:45;;;;;;;;;;;;;;;;;;5015950;28;19922;-87
2023/02/09 08:26:18;;;;;;;;;;;;;;;;;;5002796;28;19922;-89
2023/02/09 08:28:46;;;;;;;;;;;;;;;;;;5007653;28;19925;-86
2023/02/09 08:31:13;;;;;;;;;;;;;;;;;;5002906;28;20409;-86
2023/02/09 08:33:41;;;;;;;;;;;;;;;;;;5012423;28;19925;-87
2023/02/09 08:36:08;;;;;;;;;;;;;;;;;;5022992;28;20024;-86
2023/02/09 08:38:41;;;;;;;;;;;;;;;;;;5005606;28;19937;-86
2023/02/09 08:41:08;;;;;;;;;;;;;;;;;;5003346;28;19928;-85
2023/02/09 08:43:41;;;;;;;;;;;;;;;;;;5005796;28;19925;-85
2023/02/09 08:46:08;;;;;;;;;;;;;;;;;;5003899;28;19929;-85
2023/02/09 08:48:41;;;;;;;;;;;;;;;;;;5001889;28;19929;-86
2023/02/09 08:51:14;;;;;;;;;;;;;;;;;;5013796;28;20377;-85
2023/02/09 08:53:45;;;;;;;;;;;;;;;;;;5002242;28;19929;-88
2023/02/09 08:56:12;;;;;;;;;;;;;;;;;;5000095;28;21256;-85
2023/02/09 08:58:45;;;;;;;;;;;;;;;;;;5022156;28;20961;-85
2023/02/09 09:01:13;;;;;;;;;;;;;;;;;;5003504;28;20461;-87
2023/02/09 09:03:40;;;;;;;;;;;;;;;;;;5004137;28;20286;-85
2023/02/09 09:06:08;;;;;;;;;;;;;;;;;;5004181;28;19936;-86
2023/02/09 09:08:36;;;;;;;;;;;;;;;;;;5003761;28;19929;-85
2023/02/09 09:11:05;;;;;;;;;;;;;;;;;;5003289;28;19932;-86
2023/02/09 09:13:37;;;;;;;;;;;;;;;;;;5019162;28;19929;-85
2023/02/09 09:16:05;;;;;;;;;;;;;;;;;;4997005;28;19933;-84
2023/02/09 09:18:32;;;;;;;;;;;;;;;;;;5006856;28;19940;-84
2023/02/09 09:21:05;;;;;;;;;;;;;;;;;;5003375;28;19929;-86
2023/02/09 09:23:33;;;;;;;;;;;;;;;;;;5003416;28;20083;-85
2023/02/09 09:26:00;;;;;;;;;;;;;;;;;;5011249;28;20854;-85
2023/02/09 09:28:28;;;;;;;;;;;;;;;;;;4999238;28;20607;-85
2023/02/09 09:30:55;;;;;;;;;;;;;;;;;;5002125;28;19928;-85
2023/02/09 09:33:23;;;;;;;;;;;;;;;;;;5006689;28;19925;-85
2023/02/09 09:35:50;;;;;;;;;;;;;;;;;;4999248;28;19929;-85
2023/02/09 09:38:18;;;;;;;;;;;;;;;;;;5007085;28;19936;-86
2023/02/09 09:40:46;;;;;;;;;;;;;;;;;;5004626;28;20551;-86
2023/02/09 09:43:18;;;;;;;;;;;;;;;;;;5002194;28;21403;-85
2023/02/09 09:45:46;;;;;;;;;;;;;;;;;;5000911;28;19936;-85
2023/02/09 09:48:13;;;;;;;;;;;;;;;;;;5024621;28;20401;-85
2023/02/09 09:50:41;;;;;;;;;;;;;;;;;;5020160;28;19929;-85
2023/02/09 09:53:08;;;;;;;;;;;;;;;;;;5007721;28;19929;-85
2023/02/09 09:55:41;;;;;;;;;;;;;;;;;;5018724;28;19937;-86
2023/02/09 09:58:08;;;;;;;;;;;;;;;;;;4998454;28;19929;-85
2023/02/09 10:00:36;;;;;;;;;;;;;;;;;;5006114;28;20379;-85
2023/02/09 10:03:03;;;;;;;;;;;;;;;;;;5006903;28;19929;-86
2023/02/09 10:05:31;;;;;;;;;;;;;;;;;;5004644;28;21326;-87
2023/02/09 10:07:58;;;;;;;;;;;;;;;;;;5005415;28;19936;-86
2023/02/09 10:10:26;;;;;;;;;;;;;;;;;;5002074;28;19929;-84
2023/02/09 10:13:03;;;;;;;11.20;6.05;;;;;;;;;;5017556;28;19951;-85
2023/02/09 10:15:32;;;;;;;10.38;4.80;;;;;;;;;;4999063;28;20065;-85
2023/02/09 10:18:00;;;;;;;9.55;4.43;;;;;;;;;;5001948;28;20050;-84
2023/02/09 10:20:43;;;;;;;11.68;5.10;;;;;;;;;;5000738;28;20061;-83
2023/02/09 10:23:19;;;;;;;18.20;5.60;;;;;;;;;;5002961;28;20045;-86
2023/02/09 10:25:54;;;;;;;12.70;5.28;;;;;;;;;;5000173;28;20053;-85
2023/02/09 10:28:29;;;;;;;11.23;4.88;;;;;;;;;;5001922;28;20066;-85
2023/02/09 10:30:58;;;;;;;10.85;5.30;;;;;;;;;;5007232;28;20049;-84
2023/02/09 10:33:41;;;;;;;6.20;3.25;;;;;;;;;;5019925;28;20061;-83
2023/02/09 10:36:20;;;;;;;12.05;5.85;;;;;;;;;;5020704;28;20073;-84
2023/02/09 10:38:48;;;;;;;13.85;5.72;;;;;;;;;;5005222;28;20499;-85
2023/02/09 10:41:16;;;;;;;;;;;;;;;;;;5003532;28;20608;-85
2023/02/09 10:43:50;;;;;;;9.70;5.05;;;;;;;;;;4998878;28;19929;-84
2023/02/09 10:46:19;;;;;;;7.72;4.03;;;;;;;;;;4995096;28;20068;-84
2023/02/09 10:48:52;;;;;;;12.10;5.60;;;;;;;;;;5012379;28;20057;-85
2023/02/09 10:51:27;;;;;;;11.57;5.60;;;;;;;;;;5006337;28;20714;-85
2023/02/09 10:54:01;;;;;;;17.73;5.50;;;;;;;;;;4997079;28;20058;-85
2023/02/09 10:56:33;;;;;;;8.38;3.58;;;;;;;;;;5001289;28;20057;-84
2023/02/09 10:59:15;;;;;;;14.35;5.90;;;;;;;;;;5002698;28;20045;-85
2023/02/09 11:01:44;;;;;;;9.85;3.08;;;;;;;;;;4999037;28;20073;-84
2023/02/09 11:04:18;;;;;;;14.40;5.82;;;;;;;;;;4995048;28;20245;-85
2023/02/09 11:06:52;;;;;;;15.65;5.70;;;;;;;;;;4999976;28;20647;-86
2023/02/09 11:09:24;;;;;;;12.35;5.55;;;;;;;;;;4997016;28;20061;-85
2023/02/09 11:11:52;;;;;;;11.05;5.20;;;;;;;;;;5014887;28;20057;-85
2023/02/09 11:14:21;;;;;;;8.73;4.10;;;;;;;;;;5005197;28;20068;-84
2023/02/09 11:16:55;;;;;;;16.75;6.00;;;;;;;;;;4994749;28;20054;-85
2023/02/09 11:19:37;;;;;;;10.77;5.28;;;;;;;;;;5000554;28;20065;-85
2023/02/09 11:22:10;;;;;;;13.02;11.48;;;;;;;;;;4997175;28;20052;-87
2023/02/09 11:24:51;;;;;;;4.05;2.38;;;;;;;;;;4996942;28;20438;-84
2023/02/09 11:27:24;;;;;;;11.77;5.88;;;;;;;;;;5015627;28;20057;-85
2023/02/09 11:30:03;;;;;;;12.13;5.35;;;;;;;;;;5004032;28;20061;-85
2023/02/09 11:32:39;;;;;;;14.05;5.70;;;;;;;;;;4997589;28;21355;-86
2023/02/09 11:35:13;;;;;;;13.88;5.72;;;;;;;;;;5001221;28;20057;-85
2023/02/09 11:37:49;;;;;;;11.40;5.43;;;;;;;;;;4998190;28;20073;-85
2023/02/09 11:40:25;;;;;;;14.38;5.75;;;;;;;;;;5004865;28;20053;-85
2023/02/09 11:42:57;;;;;;;14.88;6.03;;;;;;;;;;4997498;28;20108;-85
2023/02/09 11:45:33;;;;;;;12.02;6.18;;;;;;;;;;4997575;28;20045;-84
2023/02/09 11:48:05;;;;;;;8.88;4.40;;;;;;;;;;4997625;28;20050;-85
2023/02/09 11:50:40;;;;;;;11.73;4.75;;;;;;;;;;4998459;28;20069;-85
2023/02/09 11:53:13;;;;;;;11.48;4.18;;;;;;;;;;4997583;28;20058;-85
2023/02/09 11:55:47;;;;;;;13.13;5.32;;;;;;;;;;4996227;28;20449;-86
2023/02/09 11:58:23;;;;;;;15.10;6.18;;;;;;;;;;4997981;28;20068;-86
2023/02/09 12:00:59;;;;;;;9.70;4.63;;;;;;;;;;5008810;28;20053;-86
2023/02/09 12:03:27;;;;;;;12.98;5.40;;;;;;;;;;5006734;28;20062;-86
2023/02/09 12:06:01;;;;;;;14.70;6.10;;;;;;;;;;5019958;28;20495;-83
2023/02/09 12:08:50;;;;;;;10.55;5.13;;;;;;;;;;5004208;28;20522;-85
2023/02/09 12:11:23;;;;;;;12.52;4.40;;;;;;;;;;5005294;28;20041;-85
2023/02/09 12:13:58;;;;;;;10.90;5.30;;;;;;;;;;5012791;28;20054;-85
2023/02/09 12:16:30;;;;;;;10.88;4.97;;;;;;;;;;5005369;28;20411;-85
2023/02/09 12:18:58;;;;;;;12.43;5.72;;;;;;;;;;5004371;28;20050;-85
2023/02/09 12:21:26;;;;;;;;;;;;;;;;;;4993822;28;20046;-84
2023/02/09 12:23:53;;;;;;;13.88;5.63;;;;;;;;;;5014006;28;19925;-85
2023/02/09 12:26:35;;;;;;;16.77;6.28;;;;;;;;;;5003794;28;20046;-88
2023/02/09 12:29:23;;;;;;;11.52;5.05;;;;;;;;;;5002959;28;20049;-86
2023/02/09 12:32:10;;;;;;;12.85;5.80;;;;;;;;;;4991657;28;20054;-87
2023/02/09 12:34:48;;;;;;;11.77;5.03;;;;;;;;;;4998897;28;20992;-88
2023/02/09 12:37:23;;;;;;;12.57;5.45;;;;;;;;;;4996068;28;20065;-87
2023/02/09 12:40:10;;;;;;;11.43;5.32;;;;;;;;;;4996767;28;20069;-86
2023/02/09 12:42:43;;;;;;;13.32;5.25;;;;;;;;;;5004684;28;20062;-86
2023/02/09 12:45:31;;;;;;;22.63;5.45;;;;;;;;;;5016108;28;20587;-86
2023/02/09 12:48:12;;;;;;;10.23;5.22;;;;;;;;;;5005845;28;20062;-86
2023/02/09 12:50:49;;;;;;;13.35;5.88;;;;;;;;;;4997741;28;20414;-86
2023/02/09 12:53:42;;;;;;;9.85;4.53;;;;;;;;;;5005889;28;20069;-89
2023/02/09 12:56:25;;;;;;;16.80;6.05;;;;;;;;;;5017289;28;20422;-87
2023/02/09 12:58:54;;;;;;;13.07;5.45;;;;;;;;;;5021768;28;20251;-86
2023/02/09 13:01:42;;;;;;;17.20;5.22;;;;;;;;;;5004556;28;20058;-87
2023/02/09 13:04:10;;;;;;;16.85;6.28;;;;;;;;;;5004054;28;20076;-86
2023/02/09 13:06:46;;;;;;;17.25;6.63;;;;;;;;;;5006289;28;20053;-87
2023/02/09 13:09:25;;;;;;;13.98;5.05;;;;;;;;;;5000831;28;20053;-86
2023/02/09 13:12:03;;;;;;;20.10;7.03;;;;;;;;;;5003320;28;20049;-87
2023/02/09 13:14:31;;;;;;;12.27;5.63;;;;;;;;;;5002018;28;20852;-87
2023/02/09 13:17:25;;;;;;;12.93;6.00;;;;;;;;;;5023470;28;20057;-88
2023/02/09 13:20:28;;;;;;;13.00;5.13;;;;;;;;;;5011734;28;20058;-89
2023/02/09 13:23:02;;;;;;;12.95;5.57;;;;;;;;;;5005109;28;20064;-87
2023/02/09 13:25:32;;;;;;;13.07;6.00;;;;;;;;;;5006470;28;20108;-86
2023/02/09 13:28:08;;;;;;;12.88;5.10;;;;;;;;;;5013274;28;20050;-86
2023/02/09 13:30:36;;;;;;;14.52;5.63;;;;;;;;;;5025520;28;20052;-86
2023/02/09 13:33:08;;;;;;;12.73;6.22;;;;;;;;;;4998365;28;20061;-85
2023/02/09 13:35:37;;;;;;;12.85;6.00;;;;;;;;;;5005634;28;20053;-86
2023/02/09 13:38:14;;;;;;;12.55;5.30;;;;;;;;;;5006175;28;20068;-85
2023/02/09 13:40:45;;;;;;;16.42;5.82;;;;;;;;;;5005439;28;20057;-86
2023/02/09 13:43:19;;;;;;;10.27;5.05;;;;;;;;;;5009029;28;20065;-86
2023/02/09 13:45:48;;;;;;;14.27;5.78;;;;;;;;;;5025705;28;20053;-85
2023/02/09 13:48:21;;;;;;;15.82;6.10;;;;;;;;;;5008231;28;20069;-86
2023/02/09 13:50:49;;;;;;;13.35;4.68;;;;;;;;;;5009194;28;20061;-86
2023/02/09 13:53:19;;;;;;;16.90;5.30;;;;;;;;;;5005568;28;21268;-86
2023/02/09 13:55:53;;;;;;;14.85;5.70;;;;;;;;;;5022994;28;20058;-86
2023/02/09 13:58:23;;;;;;;15.65;6.50;;;;;;;;;;5025166;28;20049;-87
2023/02/09 14:00:57;;;;;;;15.43;5.97;;;;;;;;;;5007582;28;20107;-86
2023/02/09 14:03:26;;;;;;;14.32;5.50;;;;;;;;;;5012334;28;20053;-86
2023/02/09 14:06:01;;;;;;;14.80;5.63;;;;;;;;;;5004317;28;20705;-86
2023/02/09 14:08:37;;;;;;;15.70;5.88;;;;;;;;;;5003429;28;20064;-86
2023/02/09 14:11:07;;;;;;;14.52;6.03;;;;;;;;;;5005944;28;20084;-86
2023/02/09 14:13:42;;;;;;;14.68;5.50;;;;;;;;;;5008671;28;20058;-86
2023/02/09 14:16:14;;;;;;;9.85;4.93;;;;;;;;;;5007471;28;20509;-87
2023/02/09 14:18:46;;;;;;;14.40;6.13;;;;;;;;;;5009578;28;20060;-86
2023/02/09 14:21:16;;;;;;;13.90;5.93;;;;;;;;;;5009112;28;20413;-86
2023/02/09 14:23:46;;;;;;;11.88;5.97;;;;;;;;;;5022542;28;20108;-86
2023/02/09 14:26:19;;;;;;;9.20;4.20;;;;;;;;;;5001339;28;20629;-86
2023/02/09 14:28:53;;;;;;;10.05;5.03;;;;;;;;;;5005154;28;20054;-86
2023/02/09 14:31:26;;;;;;;12.45;5.63;;;;;;;;;;5021684;28;20076;-88
2023/02/09 14:33:55;;;;;;;13.63;5.50;;;;;;;;;;5011788;28;20064;-85
2023/02/09 14:36:29;;;;;;;23.23;6.65;;;;;;;;;;5007314;28;21853;-86
2023/02/09 14:39:09;;;;;;;12.45;5.55;;;;;;;;;;5003507;28;20060;-86
2023/02/09 14:41:54;;;;;;;14.68;6.05;;;;;;;;;;5006963;28;20091;-86
2023/02/09 14:44:22;;;;;;;13.95;6.15;;;;;;;;;;5009889;28;20061;-86
2023/02/09 14:46:52;;;;;;;12.35;6.13;;;;;;;;;;5001301;28;20054;-86
2023/02/09 14:49:20;;;;;;;13.02;6.47;;;;;;;;;;5003697;28;20850;-85
2023/02/09 14:52:00;;;;;;;16.05;5.97;;;;;;;;;;5007464;28;20505;-86
2023/02/09 14:54:45;;;;;;;13.30;5.78;;;;;;;;;;5008866;28;20054;-86
2023/02/09 14:57:19;;;;;;;15.07;5.82;;;;;;;;;;5020445;28;20068;-89
2023/02/09 14:59:52;;;;;;;12.30;4.50;;;;;;;;;;5006749;28;20045;-87
2023/02/09 15:02:22;;;;;;;12.60;5.82;;;;;;;;;;5003185;28;20053;-88
2023/02/09 15:04:55;;;;;;;14.23;5.88;;;;;;;;;;5005598;28;20054;-88
2023/02/09 15:07:32;;;;;;;14.20;6.22;;;;;;;;;;5009597;28;20050;-86
2023/02/09 15:10:08;;;;;;;11.50;5.63;;;;;;;;;;5007485;28;20422;-87
2023/02/09 15:12:41;;;;;;;15.30;6.72;;;;;;;;;;5006696;28;20529;-87
2023/02/09 15:15:08;;;;;;;;;;;;;;;;;;5004880;28;20061;-91
2023/02/09 15:17:43;;;;;;;12.80;5.30;;;;;;;;;;5006617;28;19956;-88
2023/02/09 15:23:25;;;;;;;11.35;5.32;;;;;;;;;;5017477;28;20052;-88
2023/02/09 15:26:00;;;;;;;13.25;5.90;;;;;;;;;;5021707;28;20261;-87
2023/02/09 15:28:37;;;;;;;13.43;5.47;;;;;;;;;;5002964;28;20695;-91
2023/02/09 15:31:05;;;;;;;14.77;5.18;;;;;;;;;;5021148;28;20045;-88
2023/02/09 15:33:33;;;;;;;10.85;5.60;;;;;;;;;;5002979;28;20406;-91
2023/02/09 15:36:02;;;;;;;13.85;6.05;;;;;;;;;;5004195;28;20052;-92
2023/02/09 15:38:37;;;;;;;15.05;6.38;;;;;;;;;;5005108;28;20049;-89
2023/02/09 15:49:52;;;;;;;12.73;5.22;;;;;;;;;;4996848;28;20065;-89
2023/02/09 15:52:21;;;;;;;;;;;;;;;;;;5004706;28;20049;-88
2023/02/09 15:54:50;;;;;;;10.00;4.35;;;;;;;;;;4998605;28;19929;-87
2023/02/09 15:57:23;;;;;;;11.95;5.00;;;;;;;;;;5000309;28;20077;-90
2023/02/09 15:59:55;;;;;;;11.90;5.68;;;;;;;;;;5002255;28;20088;-89
2023/02/09 16:02:23;;;;;;;14.35;5.50;;;;;;;;;;5019781;28;20061;-88
2023/02/09 16:04:51;;;;;;;15.20;6.57;;;;;;;;;;5001688;28;20521;-89
2023/02/09 16:07:25;;;;;;;12.43;5.60;;;;;;;;;;5003810;28;20424;-89
2023/02/09 16:09:53;;;;;;;12.02;5.80;;;;;;;;;;4999469;28;20042;-89
2023/02/09 16:12:21;;;;;;;;;;;;;;;;;;5017426;28;20056;-89
2023/02/09 16:14:49;;;;;;;12.40;5.03;;;;;;;;;;5022068;28;20498;-88
2023/02/09 16:17:16;;;;;;;;;;;;;;;;;;5005885;28;20050;-89
2023/02/09 16:19:47;;;;;;;;;;;;;;;;;;5009164;28;20308;-88
2023/02/09 16:22:21;;;;;;;10.70;5.07;;;;;;;;;;5005071;28;19929;-87
2023/02/09 16:24:49;;;;;;;14.90;5.40;;;;;;;;;;5007241;28;20037;-89
2023/02/09 16:27:16;;;;;;;;;;;;;;;;;;5004895;28;20060;-89
2023/02/09 16:29:49;;;;;;;9.93;5.43;;;;;;;;;;5001775;28;19952;-88
2023/02/09 16:32:17;;;;;;;;;;;;;;;;;;5022387;28;20057;-90
2023/02/09 16:34:44;;;;;;;;;;;;;;;;;;4996137;28;19928;-89
2023/02/09 16:37:12;;;;;;;;;;;;;;;;;;5024232;28;19929;-87